Time;durP1;ratioP1;P1;durP2;ratioP2;P2;SDS_P1;SDS_P2;PMS_P1;PMS_P2;Temp;Humidity;BMP_temperature;BMP_pressure;BME280_temperature;BME280_humidity;BME280_pressure;Samples;Min_cycle;Max_cycle;Signal;HPM_P1;HPM_P2
2022/03/30 00:01:46;;;;;;;26.42;16.85;;;;;;;;;;5051366;28;20072;-75
2022/03/30 00:04:13;;;;;;;26.67;15.43;;;;;;;;;;5051280;28;20099;-75
2022/03/30 00:06:39;;;;;;;26.27;16.50;;;;;;;;;;5051292;28;20053;-75
2022/03/30 00:09:05;;;;;;;29.88;17.25;;;;;;;;;;5051578;28;20041;-76
2022/03/30 00:11:32;;;;;;;26.55;16.02;;;;;;;;;;5051408;28;20140;-76
2022/03/30 00:13:58;;;;;;;29.42;17.23;;;;;;;;;;5051183;28;20083;-76
2022/03/30 00:16:25;;;;;;;27.90;16.20;;;;;;;;;;5051146;28;20131;-76
2022/03/30 00:18:52;;;;;;;27.17;16.33;;;;;;;;;;5051748;28;20381;-76
2022/03/30 00:21:18;;;;;;;26.75;16.75;;;;;;;;;;5051424;28;20072;-76
2022/03/30 00:23:44;;;;;;;27.67;17.05;;;;;;;;;;5051341;28;20080;-76
2022/03/30 00:26:11;;;;;;;27.70;16.85;;;;;;;;;;5051072;28;20211;-76
2022/03/30 00:28:37;;;;;;;28.05;17.63;;;;;;;;;;5051268;28;20087;-76
2022/03/30 00:31:04;;;;;;;28.60;17.15;;;;;;;;;;5051347;28;20080;-76
2022/03/30 00:33:30;;;;;;;29.08;17.27;;;;;;;;;;5051272;28;20096;-76
2022/03/30 00:35:57;;;;;;;30.40;18.08;;;;;;;;;;5051079;28;20505;-76
2022/03/30 00:38:23;;;;;;;33.08;19.85;;;;;;;;;;5051141;28;20053;-76
2022/03/30 00:40:50;;;;;;;34.15;18.95;;;;;;;;;;5050878;28;20099;-76
2022/03/30 00:43:16;;;;;;;36.20;18.13;;;;;;;;;;5052947;28;20128;-76
2022/03/30 00:45:42;;;;;;;31.45;18.65;;;;;;;;;;5055054;28;20076;-76
2022/03/30 00:48:09;;;;;;;32.92;18.40;;;;;;;;;;5053673;28;20064;-76
2022/03/30 00:50:36;;;;;;;32.05;18.60;;;;;;;;;;5054684;28;20076;-76
2022/03/30 00:53:02;;;;;;;31.35;19.10;;;;;;;;;;5054552;28;20099;-76
2022/03/30 00:55:30;;;;;;;;;;;;;;;;;;5055177;28;20053;-76
2022/03/30 00:57:57;;;;;;;31.10;18.40;;;;;;;;;;5054424;28;19967;-76
2022/03/30 01:00:24;;;;;;;35.50;18.90;;;;;;;;;;5054375;28;20056;-76
2022/03/30 01:02:53;;;;;;;33.37;19.90;;;;;;;;;;5054710;28;20073;-76
2022/03/30 01:05:19;;;;;;;34.25;18.83;;;;;;;;;;5054491;28;20060;-76
2022/03/30 01:07:46;;;;;;;34.40;18.85;;;;;;;;;;5054340;28;20084;-76
2022/03/30 01:10:13;;;;;;;37.57;20.67;;;;;;;;;;5054604;28;20076;-76
2022/03/30 01:12:40;;;;;;;32.58;18.70;;;;;;;;;;5054237;28;20053;-76
2022/03/30 01:15:08;;;;;;;37.55;21.40;;;;;;;;;;5054449;28;20084;-76
2022/03/30 01:17:34;;;;;;;36.55;21.67;;;;;;;;;;5053042;28;20083;-76
2022/03/30 01:20:01;;;;;;;36.13;20.15;;;;;;;;;;5054380;28;20079;-76
2022/03/30 01:22:27;;;;;;;37.13;21.08;;;;;;;;;;5054167;28;20134;-76
2022/03/30 01:24:54;;;;;;;34.40;20.73;;;;;;;;;;5054300;28;20056;-76
2022/03/30 01:27:20;;;;;;;38.05;21.25;;;;;;;;;;5054172;28;20084;-76
2022/03/30 01:32:34;;;;;;;38.22;21.40;;;;;;;;;;5054170;28;20571;-76
2022/03/30 01:35:03;;;;;;;40.13;21.52;;;;;;;;;;5053620;28;20111;-76
2022/03/30 01:37:30;;;;;;;35.13;19.65;;;;;;;;;;5053663;28;20083;-76
2022/03/30 01:39:58;;;;;;;35.60;20.38;;;;;;;;;;5053918;28;20049;-76
2022/03/30 01:42:24;;;;;;;;;;;;;;;;;;5054678;28;20041;-75
2022/03/30 01:44:51;;;;;;;37.90;20.25;;;;;;;;;;5053608;28;19956;-75
2022/03/30 01:47:18;;;;;;;33.88;19.40;;;;;;;;;;5053626;28;20142;-75
2022/03/30 01:49:45;;;;;;;39.13;20.33;;;;;;;;;;5053868;28;20455;-75
2022/03/30 01:52:14;;;;;;;33.87;20.77;;;;;;;;;;5053235;28;20520;-75
2022/03/30 01:54:41;;;;;;;37.63;21.63;;;;;;;;;;5053244;28;20057;-76
2022/03/30 01:57:08;;;;;;;35.70;19.35;;;;;;;;;;5053183;28;20095;-76
2022/03/30 01:59:35;;;;;;;36.43;20.90;;;;;;;;;;5053320;28;20083;-76
2022/03/30 02:02:02;;;;;;;35.60;19.58;;;;;;;;;;5053180;28;20321;-76
2022/03/30 02:04:29;;;;;;;35.92;20.92;;;;;;;;;;5053472;28;20504;-76
2022/03/30 02:06:55;;;;;;;34.47;20.50;;;;;;;;;;5053192;28;20084;-75
2022/03/30 02:09:22;;;;;;;34.60;19.35;;;;;;;;;;5053277;28;20088;-76
2022/03/30 02:11:50;;;;;;;34.60;19.60;;;;;;;;;;5053387;28;20084;-76
2022/03/30 02:14:16;;;;;;;32.15;18.95;;;;;;;;;;5052972;28;20053;-76
2022/03/30 02:16:43;;;;;;;37.83;21.13;;;;;;;;;;5053026;28;20121;-75
2022/03/30 02:19:11;;;;;;;36.03;19.73;;;;;;;;;;5051967;28;20076;-76
2022/03/30 02:21:38;;;;;;;39.15;21.88;;;;;;;;;;5051990;28;20045;-76
2022/03/30 02:24:05;;;;;;;35.90;20.08;;;;;;;;;;5046441;28;20049;-76
2022/03/30 02:26:31;;;;;;;37.45;21.27;;;;;;;;;;5052742;28;20088;-76
2022/03/30 02:28:57;;;;;;;42.53;20.70;;;;;;;;;;5052675;28;20085;-76
2022/03/30 02:31:24;;;;;;;36.73;21.13;;;;;;;;;;5052971;28;20053;-76
2022/03/30 02:33:51;;;;;;;38.70;21.40;;;;;;;;;;5052351;28;20059;-75
2022/03/30 02:36:18;;;;;;;34.28;20.42;;;;;;;;;;5052561;28;20484;-76
2022/03/30 02:38:44;;;;;;;34.80;21.00;;;;;;;;;;5051365;28;20080;-76
2022/03/30 02:41:11;;;;;;;35.22;21.55;;;;;;;;;;5052735;28;20049;-76
2022/03/30 02:43:38;;;;;;;37.50;23.13;;;;;;;;;;5052472;28;20080;-76
2022/03/30 02:46:05;;;;;;;35.58;22.05;;;;;;;;;;5052444;28;20092;-75
2022/03/30 02:48:33;;;;;;;37.85;23.13;;;;;;;;;;5052874;28;20053;-75
2022/03/30 02:51:02;;;;;;;37.75;22.88;;;;;;;;;;5052851;28;20072;-75
2022/03/30 02:53:29;;;;;;;34.30;22.45;;;;;;;;;;5052243;28;20556;-76
2022/03/30 02:55:56;;;;;;;34.50;22.45;;;;;;;;;;5052495;28;20084;-76
2022/03/30 02:58:23;;;;;;;35.97;22.63;;;;;;;;;;5052379;28;20049;-76
2022/03/30 03:00:49;;;;;;;35.08;21.90;;;;;;;;;;5052024;28;20085;-76
2022/03/30 03:03:16;;;;;;;34.58;21.58;;;;;;;;;;5052543;28;20041;-76
2022/03/30 03:05:43;;;;;;;35.23;21.27;;;;;;;;;;5051556;28;20088;-76
2022/03/30 03:08:11;;;;;;;34.00;21.15;;;;;;;;;;5052421;28;20457;-75
2022/03/30 03:10:37;;;;;;;;;;;;;;;;;;5052724;28;20053;-75
2022/03/30 03:13:04;;;;;;;34.85;21.27;;;;;;;;;;5051877;28;19979;-75
2022/03/30 03:15:32;;;;;;;33.42;21.85;;;;;;;;;;5050701;28;20082;-75
2022/03/30 03:17:58;;;;;;;34.60;21.23;;;;;;;;;;5051760;28;20064;-76
2022/03/30 03:20:25;;;;;;;33.92;20.75;;;;;;;;;;5052162;28;20156;-75
2022/03/30 03:22:52;;;;;;;37.50;22.35;;;;;;;;;;5051819;28;20080;-76
2022/03/30 03:25:18;;;;;;;32.65;20.92;;;;;;;;;;5051888;28;20049;-76
2022/03/30 03:27:44;;;;;;;35.78;22.23;;;;;;;;;;5051710;28;20552;-75
2022/03/30 03:30:11;;;;;;;29.88;20.77;;;;;;;;;;5050368;28;20080;-75
2022/03/30 03:32:37;;;;;;;36.45;21.75;;;;;;;;;;5051597;28;20530;-75
2022/03/30 03:35:04;;;;;;;32.75;20.65;;;;;;;;;;5051711;28;20049;-75
2022/03/30 03:37:31;;;;;;;33.70;21.55;;;;;;;;;;5051660;28;20095;-75
2022/03/30 03:39:57;;;;;;;34.28;20.38;;;;;;;;;;5051509;28;20091;-74
2022/03/30 03:42:23;;;;;;;33.28;21.85;;;;;;;;;;5051936;28;20080;-75
2022/03/30 03:44:51;;;;;;;34.72;20.60;;;;;;;;;;5051788;28;20132;-75
2022/03/30 03:47:17;;;;;;;32.63;20.85;;;;;;;;;;5050584;28;20460;-75
2022/03/30 03:49:44;;;;;;;35.97;20.70;;;;;;;;;;5051666;28;20095;-77
2022/03/30 03:52:10;;;;;;;34.30;21.25;;;;;;;;;;5051320;28;20103;-76
2022/03/30 03:54:37;;;;;;;35.72;21.65;;;;;;;;;;5051744;28;20052;-76
2022/03/30 03:57:03;;;;;;;34.53;20.52;;;;;;;;;;5051537;28;20136;-76
2022/03/30 03:59:30;;;;;;;34.70;19.92;;;;;;;;;;5050371;28;20077;-76
2022/03/30 04:01:56;;;;;;;32.08;19.75;;;;;;;;;;5051363;28;20056;-76
2022/03/30 04:04:23;;;;;;;33.85;20.30;;;;;;;;;;5051615;28;20488;-76
2022/03/30 04:06:49;;;;;;;34.17;19.27;;;;;;;;;;5051334;28;20544;-76
2022/03/30 04:09:16;;;;;;;32.05;18.27;;;;;;;;;;5051675;28;20059;-75
2022/03/30 04:11:42;;;;;;;30.33;18.30;;;;;;;;;;5051209;28;20535;-76
2022/03/30 04:14:09;;;;;;;32.00;19.98;;;;;;;;;;5051190;28;20137;-75
2022/03/30 04:16:35;;;;;;;30.48;18.13;;;;;;;;;;5052213;28;20127;-75
2022/03/30 04:19:02;;;;;;;31.10;18.80;;;;;;;;;;5055081;28;20570;-75
2022/03/30 04:21:28;;;;;;;30.13;17.30;;;;;;;;;;5055136;28;20562;-75
2022/03/30 04:23:54;;;;;;;29.33;18.50;;;;;;;;;;5055175;28;20080;-76
2022/03/30 04:26:21;;;;;;;28.83;18.17;;;;;;;;;;5054918;28;20500;-76
2022/03/30 04:28:47;;;;;;;26.58;17.55;;;;;;;;;;5055283;28;20045;-76
2022/03/30 04:31:14;;;;;;;28.90;16.60;;;;;;;;;;5054967;28;20590;-76
2022/03/30 04:33:40;;;;;;;28.90;18.17;;;;;;;;;;5054794;28;20148;-76
2022/03/30 04:36:07;;;;;;;27.52;17.92;;;;;;;;;;5055252;28;20084;-76
2022/03/30 04:38:33;;;;;;;28.48;17.58;;;;;;;;;;5054711;28;20496;-77
2022/03/30 04:41:00;;;;;;;28.27;17.52;;;;;;;;;;5053785;28;20087;-77
2022/03/30 04:43:27;;;;;;;28.58;17.33;;;;;;;;;;5054983;28;20085;-76
2022/03/30 04:45:54;;;;;;;30.85;18.80;;;;;;;;;;5055018;28;20091;-76
2022/03/30 04:48:21;;;;;;;27.67;18.57;;;;;;;;;;5054923;28;20449;-76
2022/03/30 04:50:47;;;;;;;29.75;17.77;;;;;;;;;;5054750;28;20053;-76
2022/03/30 04:53:14;;;;;;;28.40;17.15;;;;;;;;;;5054588;28;20106;-76
2022/03/30 04:55:40;;;;;;;33.08;19.65;;;;;;;;;;5054777;28;20081;-76
2022/03/30 04:58:07;;;;;;;28.80;17.65;;;;;;;;;;5054654;28;20107;-76
2022/03/30 05:00:34;;;;;;;28.20;17.97;;;;;;;;;;5054735;28;20048;-76
2022/03/30 05:03:00;;;;;;;28.08;17.92;;;;;;;;;;5054796;28;20076;-76
2022/03/30 05:05:27;;;;;;;28.45;17.23;;;;;;;;;;5054538;28;20083;-76
2022/03/30 05:07:57;;;;;;;26.27;16.40;;;;;;;;;;5054686;28;20459;-76
2022/03/30 05:10:23;;;;;;;23.05;15.55;;;;;;;;;;5054590;28;20048;-76
2022/03/30 05:12:50;;;;;;;24.85;16.27;;;;;;;;;;5054480;28;20049;-76
2022/03/30 05:15:16;;;;;;;25.75;16.27;;;;;;;;;;5054461;28;20087;-77
2022/03/30 05:17:44;;;;;;;26.00;15.75;;;;;;;;;;5053162;28;20080;-76
2022/03/30 05:20:11;;;;;;;23.77;15.25;;;;;;;;;;5054119;28;20080;-76
2022/03/30 05:22:37;;;;;;;24.77;16.08;;;;;;;;;;5053987;28;20045;-76
2022/03/30 05:25:05;;;;;;;23.15;15.38;;;;;;;;;;5054098;28;20041;-76
2022/03/30 05:27:32;;;;;;;25.58;16.15;;;;;;;;;;5053860;28;20080;-76
2022/03/30 05:29:58;;;;;;;25.33;15.50;;;;;;;;;;5053120;28;20505;-76
2022/03/30 05:32:24;;;;;;;24.48;16.15;;;;;;;;;;5053903;28;20488;-76
2022/03/30 05:34:51;;;;;;;25.50;15.70;;;;;;;;;;5053972;28;20111;-77
2022/03/30 05:37:26;;;;;;;23.38;16.00;;;;;;;;;;5054062;28;20130;-76
2022/03/30 05:39:53;;;;;;;25.48;16.48;;;;;;;;;;5053874;28;20100;-77
2022/03/30 05:42:21;;;;;;;24.60;15.90;;;;;;;;;;5053680;28;20075;-77
2022/03/30 05:44:47;;;;;;;24.25;16.27;;;;;;;;;;5053619;28;20057;-74
2022/03/30 05:47:14;;;;;;;24.05;15.68;;;;;;;;;;5053452;28;20077;-77
2022/03/30 05:49:41;;;;;;;23.63;15.17;;;;;;;;;;5053823;28;20091;-77
2022/03/30 05:52:07;;;;;;;23.75;15.68;;;;;;;;;;5053536;28;20695;-77
2022/03/30 05:54:39;;;;;;;24.13;15.40;;;;;;;;;;5053557;28;20052;-77
2022/03/30 05:57:05;;;;;;;22.27;15.18;;;;;;;;;;5053510;28;20095;-76
2022/03/30 05:59:42;;;;;;;24.85;16.55;;;;;;;;;;5053289;28;20501;-76
2022/03/30 06:02:11;;;;;;;23.17;16.90;;;;;;;;;;5053244;28;20067;-77
2022/03/30 06:04:38;;;;;;;23.45;15.70;;;;;;;;;;5053253;28;20053;-77
2022/03/30 06:07:05;;;;;;;23.48;16.33;;;;;;;;;;5053123;28;20103;-77
2022/03/30 06:09:33;;;;;;;25.90;16.90;;;;;;;;;;5053091;28;20088;-77
2022/03/30 06:12:11;;;;;;;23.10;16.15;;;;;;;;;;5053082;28;20064;-76
2022/03/30 06:14:38;;;;;;;23.52;16.10;;;;;;;;;;5053118;28;20103;-76
2022/03/30 06:17:05;;;;;;;25.92;16.85;;;;;;;;;;5053444;28;20099;-76
2022/03/30 06:19:33;;;;;;;29.05;17.75;;;;;;;;;;5053171;28;20049;-76
2022/03/30 06:22:01;;;;;;;23.98;17.00;;;;;;;;;;5052963;28;20049;-77
2022/03/30 06:24:27;;;;;;;23.27;15.48;;;;;;;;;;5053367;28;20044;-75
2022/03/30 06:26:54;;;;;;;24.98;17.20;;;;;;;;;;5047075;28;20081;-76
2022/03/30 06:29:20;;;;;;;24.50;16.40;;;;;;;;;;5032377;28;20553;-76
2022/03/30 06:31:47;;;;;;;23.52;16.88;;;;;;;;;;5036260;28;20080;-77
2022/03/30 06:34:13;;;;;;;25.00;16.27;;;;;;;;;;5046791;28;20054;-77
2022/03/30 06:36:40;;;;;;;26.23;17.27;;;;;;;;;;5032266;28;20115;-75
2022/03/30 06:39:06;;;;;;;25.08;16.52;;;;;;;;;;5046378;28;20044;-76
2022/03/30 06:41:33;;;;;;;24.88;16.27;;;;;;;;;;5038464;28;20081;-79
2022/03/30 06:43:59;;;;;;;24.80;16.70;;;;;;;;;;5052721;28;20076;-80
2022/03/30 06:46:26;;;;;;;24.58;16.40;;;;;;;;;;5052378;28;20053;-80
2022/03/30 06:48:53;;;;;;;25.10;16.35;;;;;;;;;;5052411;28;20084;-79
2022/03/30 06:51:19;;;;;;;26.73;17.08;;;;;;;;;;5052374;28;20053;-79
2022/03/30 06:53:46;;;;;;;25.00;16.50;;;;;;;;;;5052292;28;20114;-75
2022/03/30 06:56:13;;;;;;;23.37;16.53;;;;;;;;;;5032852;28;20053;-76
2022/03/30 06:58:39;;;;;;;27.02;16.33;;;;;;;;;;5050815;28;20048;-75
2022/03/30 07:01:06;;;;;;;26.58;16.92;;;;;;;;;;5052145;28;20049;-76
2022/03/30 07:03:32;;;;;;;25.00;16.92;;;;;;;;;;5051234;28;20098;-75
2022/03/30 07:06:01;;;;;;;23.73;16.60;;;;;;;;;;5052231;28;20072;-75
2022/03/30 07:11:12;;;;;;;25.38;17.40;;;;;;;;;;5052033;28;20085;-76
2022/03/30 07:13:39;;;;;;;23.67;16.75;;;;;;;;;;5052096;28;20045;-76
2022/03/30 07:16:05;;;;;;;25.10;17.08;;;;;;;;;;5051886;28;20489;-76
2022/03/30 07:18:32;;;;;;;25.45;16.88;;;;;;;;;;5051605;28;20127;-76
2022/03/30 07:20:58;;;;;;;24.38;17.08;;;;;;;;;;5051903;28;20081;-75
2022/03/30 07:23:25;;;;;;;25.00;17.02;;;;;;;;;;5051784;28;20453;-76
2022/03/30 07:25:51;;;;;;;23.20;16.35;;;;;;;;;;5051994;28;20045;-76
2022/03/30 07:28:18;;;;;;;27.67;16.73;;;;;;;;;;5052118;28;20045;-77
2022/03/30 07:30:45;;;;;;;27.05;18.10;;;;;;;;;;5051940;28;20052;-76
2022/03/30 07:33:12;;;;;;;24.60;16.90;;;;;;;;;;5051684;28;20095;-75
2022/03/30 07:35:39;;;;;;;22.90;15.98;;;;;;;;;;5044262;28;20337;-76
2022/03/30 07:38:06;;;;;;;24.92;17.30;;;;;;;;;;5046045;28;20045;-76
2022/03/30 07:40:32;;;;;;;25.15;16.60;;;;;;;;;;5051821;28;20088;-76
2022/03/30 07:42:59;;;;;;;25.92;16.73;;;;;;;;;;5051757;28;20049;-76
2022/03/30 07:45:25;;;;;;;22.23;16.27;;;;;;;;;;5051473;28;20048;-76
2022/03/30 07:47:52;;;;;;;23.30;16.73;;;;;;;;;;5052121;28;20080;-76
2022/03/30 07:50:19;;;;;;;23.70;16.67;;;;;;;;;;5051678;28;20060;-76
2022/03/30 07:52:46;;;;;;;25.05;17.13;;;;;;;;;;5051233;28;20092;-76
2022/03/30 07:55:13;;;;;;;25.63;16.80;;;;;;;;;;5051399;28;20053;-76
2022/03/30 07:57:42;;;;;;;22.73;16.57;;;;;;;;;;5051441;28;20049;-76
2022/03/30 08:00:10;;;;;;;20.73;15.82;;;;;;;;;;5051496;28;20381;-76
2022/03/30 08:02:36;;;;;;;23.20;15.98;;;;;;;;;;5051454;28;20083;-76
2022/03/30 08:05:03;;;;;;;24.70;16.45;;;;;;;;;;5051385;28;20475;-76
2022/03/30 08:07:30;;;;;;;22.07;15.30;;;;;;;;;;5051794;28;20140;-76
2022/03/30 08:09:57;;;;;;;23.08;17.05;;;;;;;;;;5050400;28;20408;-76
2022/03/30 08:12:25;;;;;;;24.60;16.57;;;;;;;;;;5051434;28;20465;-76
2022/03/30 08:14:51;;;;;;;;;;;;;;;;;;5051846;28;20049;-76
2022/03/30 08:17:17;;;;;;;23.38;16.33;;;;;;;;;;5051465;28;19968;-76
2022/03/30 08:19:44;;;;;;;21.75;16.08;;;;;;;;;;5051318;28;20075;-76
2022/03/30 08:22:25;;;;;;;21.55;14.95;;;;;;;;;;5051756;28;20080;-76
2022/03/30 08:24:56;;;;;;;19.75;14.63;;;;;;;;;;5051255;28;20049;-76
2022/03/30 08:27:23;;;;;;;21.50;16.13;;;;;;;;;;5051421;28;20059;-76
2022/03/30 08:29:51;;;;;;;20.88;15.65;;;;;;;;;;5051380;28;20098;-76
2022/03/30 08:32:17;;;;;;;;;;;;;;;;;;5051459;28;20079;-76
2022/03/30 08:34:44;;;;;;;23.13;17.23;;;;;;;;;;5051116;28;20050;-76
2022/03/30 08:37:11;;;;;;;20.65;15.38;;;;;;;;;;5051216;28;20080;-76
2022/03/30 08:39:38;;;;;;;21.92;16.33;;;;;;;;;;5051125;28;20049;-76
2022/03/30 08:42:05;;;;;;;21.45;15.63;;;;;;;;;;5050959;28;20114;-76
2022/03/30 08:44:32;;;;;;;21.67;16.75;;;;;;;;;;5051296;28;20045;-76
2022/03/30 08:46:59;;;;;;;20.38;15.50;;;;;;;;;;5051211;28;20099;-76
2022/03/30 08:49:27;;;;;;;21.50;17.17;;;;;;;;;;5051276;28;20186;-76
2022/03/30 08:51:54;;;;;;;;;;;;;;;;;;5051555;28;20045;-76
2022/03/30 08:54:21;;;;;;;21.38;17.27;;;;;;;;;;5050904;28;19974;-76
2022/03/30 08:56:48;;;;;;;20.27;16.13;;;;;;;;;;5050880;28;20504;-76
2022/03/30 08:59:19;;;;;;;21.38;16.40;;;;;;;;;;5051024;28;20130;-76
2022/03/30 09:01:45;;;;;;;21.00;16.67;;;;;;;;;;5051119;28;20512;-76
2022/03/30 09:04:13;;;;;;;24.88;18.05;;;;;;;;;;5052635;28;20158;-76
2022/03/30 09:06:39;;;;;;;19.50;16.50;;;;;;;;;;5054384;28;20463;-76
2022/03/30 09:09:06;;;;;;;19.90;15.80;;;;;;;;;;5054557;28;20065;-76
2022/03/30 09:11:41;;;;;;;21.20;16.50;;;;;;;;;;5054435;28;20083;-76
2022/03/30 09:14:12;;;;;;;19.17;17.13;;;;;;;;;;5054459;28;20401;-76
2022/03/30 09:16:44;;;;;;;19.23;16.02;;;;;;;;;;5054193;28;20076;-76
2022/03/30 09:19:12;;;;;;;19.70;16.50;;;;;;;;;;5054104;28;20049;-76
2022/03/30 09:21:42;;;;;;;19.95;16.65;;;;;;;;;;5054146;28;20049;-76
2022/03/30 09:24:08;;;;;;;18.90;16.90;;;;;;;;;;5054190;28;20049;-76
2022/03/30 09:26:35;;;;;;;19.67;16.43;;;;;;;;;;5054288;28;20053;-76
2022/03/30 09:29:02;;;;;;;;;;;;;;;;;;5054876;28;20286;-76
2022/03/30 09:31:30;;;;;;;20.35;16.30;;;;;;;;;;5054097;28;20308;-76
2022/03/30 09:34:03;;;;;;;18.30;16.20;;;;;;;;;;5053658;28;20570;-75
2022/03/30 09:36:31;;;;;;;19.48;17.10;;;;;;;;;;5054073;28;20084;-76
2022/03/30 09:38:58;;;;;;;19.95;16.38;;;;;;;;;;5054041;28;20084;-76
2022/03/30 09:41:24;;;;;;;20.70;17.17;;;;;;;;;;5053950;28;20401;-76
2022/03/30 09:44:11;;;;;;;21.17;18.13;;;;;;;;;;5053829;28;20123;-76
2022/03/30 09:46:51;;;;;;;21.25;18.00;;;;;;;;;;5053881;28;20407;-76
2022/03/30 09:49:51;;;;;;;21.67;17.88;;;;;;;;;;5053578;28;20084;-76
2022/03/30 09:52:19;;;;;;;22.02;18.52;;;;;;;;;;5051916;28;20088;-76
2022/03/30 09:54:49;;;;;;;20.85;18.20;;;;;;;;;;5053585;28;20084;-76
2022/03/30 09:57:22;;;;;;;20.38;18.17;;;;;;;;;;5053331;28;20115;-76
2022/03/30 10:00:15;;;;;;;19.50;17.40;;;;;;;;;;5053283;28;20076;-76
2022/03/30 10:02:42;;;;;;;20.27;18.17;;;;;;;;;;5052931;28;20045;-76
2022/03/30 10:05:10;;;;;;;22.05;18.98;;;;;;;;;;5053287;28;20041;-76
2022/03/30 10:07:37;;;;;;;21.42;19.02;;;;;;;;;;5053537;28;20045;-76
2022/03/30 10:10:04;;;;;;;22.02;19.73;;;;;;;;;;5053437;28;20052;-75
2022/03/30 10:12:31;;;;;;;22.60;20.30;;;;;;;;;;5053110;28;20088;-76
2022/03/30 10:15:03;;;;;;;23.83;19.92;;;;;;;;;;5053154;28;20067;-76
2022/03/30 10:17:30;;;;;;;22.60;20.17;;;;;;;;;;5053286;28;20056;-75
2022/03/30 10:19:58;;;;;;;21.07;18.83;;;;;;;;;;5052933;28;20085;-75
2022/03/30 10:22:31;;;;;;;20.75;18.52;;;;;;;;;;5052405;28;20060;-76
2022/03/30 10:25:09;;;;;;;20.70;18.50;;;;;;;;;;5041133;28;20451;-75
2022/03/30 10:27:45;;;;;;;21.88;19.08;;;;;;;;;;5052914;28;20060;-76
2022/03/30 10:30:12;;;;;;;21.60;19.30;;;;;;;;;;5053182;28;20057;-76
2022/03/30 10:32:40;;;;;;;21.33;19.13;;;;;;;;;;5053010;28;20087;-75
2022/03/30 10:35:06;;;;;;;21.77;19.58;;;;;;;;;;5052428;28;20092;-75
2022/03/30 10:37:38;;;;;;;22.73;20.30;;;;;;;;;;5052920;28;20057;-75
2022/03/30 10:40:07;;;;;;;23.60;21.08;;;;;;;;;;5052478;28;20056;-76
2022/03/30 10:42:45;;;;;;;23.73;21.23;;;;;;;;;;5052852;28;20044;-76
2022/03/30 10:45:18;;;;;;;24.83;22.13;;;;;;;;;;5053071;28;20455;-76
2022/03/30 10:48:03;;;;;;;23.08;20.65;;;;;;;;;;5052698;28;20049;-75
2022/03/30 10:50:34;;;;;;;24.38;21.77;;;;;;;;;;5052728;28;20061;-75
2022/03/30 10:53:01;;;;;;;25.33;21.02;;;;;;;;;;5052613;28;20484;-75
2022/03/30 10:55:29;;;;;;;22.45;20.02;;;;;;;;;;5052617;28;20041;-75
2022/03/30 10:58:03;;;;;;;24.45;21.10;;;;;;;;;;5051099;28;20136;-75
2022/03/30 11:00:34;;;;;;;23.98;20.75;;;;;;;;;;5052367;28;20052;-75
2022/03/30 11:03:06;;;;;;;22.38;19.98;;;;;;;;;;5052669;28;20045;-76
2022/03/30 11:05:33;;;;;;;21.85;19.55;;;;;;;;;;5052361;28;20044;-76
2022/03/30 11:08:00;;;;;;;21.63;19.33;;;;;;;;;;5052179;28;20174;-76
2022/03/30 11:10:27;;;;;;;21.00;18.90;;;;;;;;;;5051929;28;20049;-76
2022/03/30 11:12:57;;;;;;;22.58;20.15;;;;;;;;;;5052016;28;20084;-76
2022/03/30 11:15:23;;;;;;;21.08;19.00;;;;;;;;;;5051019;28;20080;-76
2022/03/30 11:17:50;;;;;;;21.35;19.10;;;;;;;;;;5052199;28;20045;-76
2022/03/30 11:20:19;;;;;;;21.20;19.13;;;;;;;;;;5053251;28;20084;-76
2022/03/30 11:22:46;;;;;;;19.95;18.02;;;;;;;;;;5052105;28;20073;-75
2022/03/30 11:25:18;;;;;;;20.20;18.17;;;;;;;;;;5051766;28;20088;-76
2022/03/30 11:28:04;;;;;;;19.90;17.90;;;;;;;;;;5051342;28;20459;-75
2022/03/30 11:30:35;;;;;;;21.77;19.65;;;;;;;;;;5051660;28;20052;-76
2022/03/30 11:33:22;;;;;;;20.85;18.75;;;;;;;;;;5051656;28;20084;-76
2022/03/30 11:35:49;;;;;;;22.15;19.95;;;;;;;;;;5051649;28;20096;-76
2022/03/30 11:38:16;;;;;;;21.58;19.38;;;;;;;;;;5051860;28;20140;-75
2022/03/30 11:40:44;;;;;;;21.58;19.40;;;;;;;;;;5051527;28;20084;-75
2022/03/30 11:43:11;;;;;;;20.83;18.80;;;;;;;;;;5051828;28;20076;-75
2022/03/30 11:45:58;;;;;;;21.42;19.23;;;;;;;;;;5051695;28;20045;-75
2022/03/30 11:48:33;;;;;;;20.95;18.83;;;;;;;;;;5051732;28;20064;-75
2022/03/30 11:51:00;;;;;;;22.30;20.10;;;;;;;;;;5051544;28;20085;-75
2022/03/30 11:53:26;;;;;;;;;;;;;;;;;;5051851;28;20092;-75
2022/03/30 11:55:56;;;;;;;21.95;19.85;;;;;;;;;;5051726;28;19962;-75
2022/03/30 11:58:28;;;;;;;21.17;18.98;;;;;;;;;;5051994;28;20044;-75
2022/03/30 12:00:56;;;;;;;20.95;18.75;;;;;;;;;;5051574;28;20136;-75
2022/03/30 12:03:23;;;;;;;21.08;18.88;;;;;;;;;;5050274;28;20143;-75
2022/03/30 12:05:54;;;;;;;21.08;18.88;;;;;;;;;;5051552;28;20048;-75
2022/03/30 12:08:21;;;;;;;21.88;19.55;;;;;;;;;;5051780;28;20052;-75
2022/03/30 12:10:49;;;;;;;22.77;20.48;;;;;;;;;;5051229;28;20091;-75
2022/03/30 12:13:23;;;;;;;23.05;20.75;;;;;;;;;;5051550;28;20190;-75
2022/03/30 12:16:19;;;;;;;22.40;20.05;;;;;;;;;;5050071;28;20084;-75
2022/03/30 12:18:53;;;;;;;24.08;20.48;;;;;;;;;;5050643;28;20057;-75
2022/03/30 12:21:21;;;;;;;22.23;19.92;;;;;;;;;;5049753;28;20041;-75
2022/03/30 12:23:58;;;;;;;23.00;20.42;;;;;;;;;;5051223;28;20049;-75
2022/03/30 12:26:48;;;;;;;24.05;21.48;;;;;;;;;;5051119;28;20132;-75
2022/03/30 12:29:15;;;;;;;24.02;21.02;;;;;;;;;;5051127;28;20048;-75
2022/03/30 12:31:45;;;;;;;23.65;19.73;;;;;;;;;;5051032;28;20141;-75
2022/03/30 12:34:16;;;;;;;24.30;19.48;;;;;;;;;;5049995;28;20049;-74
2022/03/30 12:36:44;;;;;;;21.73;19.38;;;;;;;;;;5051234;28;20084;-75
2022/03/30 12:39:17;;;;;;;21.50;19.08;;;;;;;;;;5054530;28;20049;-75
2022/03/30 12:41:54;;;;;;;20.42;18.23;;;;;;;;;;5054758;28;20052;-75
2022/03/30 12:44:20;;;;;;;20.33;18.23;;;;;;;;;;5054759;28;20044;-75
2022/03/30 12:46:47;;;;;;;21.88;19.45;;;;;;;;;;5055140;28;20076;-75
2022/03/30 12:49:13;;;;;;;21.70;19.50;;;;;;;;;;5055221;28;20037;-75
2022/03/30 12:51:40;;;;;;;21.83;19.60;;;;;;;;;;5054769;28;20048;-75
2022/03/30 12:54:20;;;;;;;21.00;18.80;;;;;;;;;;5054603;28;20088;-76
2022/03/30 12:56:46;;;;;;;21.58;19.48;;;;;;;;;;5054852;28;20084;-75
2022/03/30 12:59:17;;;;;;;22.08;19.88;;;;;;;;;;5054839;28;20132;-76
2022/03/30 13:01:46;;;;;;;21.50;19.27;;;;;;;;;;5054642;28;20570;-76
2022/03/30 13:04:30;;;;;;;21.45;19.38;;;;;;;;;;5054697;28;20041;-76
2022/03/30 13:07:06;;;;;;;21.98;19.52;;;;;;;;;;5055024;28;20049;-76
2022/03/30 13:09:33;;;;;;;22.33;20.13;;;;;;;;;;5054410;28;20087;-76
2022/03/30 13:11:59;;;;;;;20.75;18.70;;;;;;;;;;5054589;28;20080;-76
2022/03/30 13:14:26;;;;;;;22.48;20.20;;;;;;;;;;5054386;28;20068;-76
2022/03/30 13:17:09;;;;;;;22.55;20.25;;;;;;;;;;5053245;28;20056;-76
2022/03/30 13:19:36;;;;;;;21.95;19.75;;;;;;;;;;5054409;28;20455;-75
2022/03/30 13:22:03;;;;;;;;;;;;;;;;;;5054846;28;20080;-75
2022/03/30 13:24:33;;;;;;;21.35;19.05;;;;;;;;;;5054008;28;19921;-75
2022/03/30 13:27:04;;;;;;;21.73;19.13;;;;;;;;;;5054265;28;20076;-76
2022/03/30 13:29:33;;;;;;;21.92;19.63;;;;;;;;;;5053920;28;20049;-76
2022/03/30 13:31:59;;;;;;;22.55;19.40;;;;;;;;;;5053888;28;20143;-76
2022/03/30 13:34:27;;;;;;;22.27;19.90;;;;;;;;;;5053777;28;20060;-75
2022/03/30 13:36:53;;;;;;;;;;;;;;;;;;5054212;28;20586;-75
2022/03/30 13:39:20;;;;;;;22.17;19.88;;;;;;;;;;5053757;28;19925;-75
2022/03/30 13:41:47;;;;;;;22.42;19.02;;;;;;;;;;5052369;28;20447;-75
2022/03/30 13:44:14;;;;;;;;;;;;;;;;;;5054420;28;20136;-75
2022/03/30 13:46:41;;;;;;;21.45;19.20;;;;;;;;;;5053863;28;19959;-75
2022/03/30 13:49:08;;;;;;;30.45;27.15;;;;;;;;;;5053182;28;20045;-75
2022/03/30 13:51:34;;;;;;;24.35;20.25;;;;;;;;;;5053949;28;20084;-75
2022/03/30 13:54:01;;;;;;;22.20;19.80;;;;;;;;;;5053560;28;20099;-75
2022/03/30 13:56:27;;;;;;;22.33;19.92;;;;;;;;;;5053818;28;20056;-75
2022/03/30 13:58:55;;;;;;;23.08;20.23;;;;;;;;;;5053618;28;20080;-75
2022/03/30 14:01:23;;;;;;;22.10;19.75;;;;;;;;;;5053592;28;20051;-75
2022/03/30 14:03:49;;;;;;;23.02;20.55;;;;;;;;;;5053313;28;20697;-75
2022/03/30 14:06:16;;;;;;;23.60;21.13;;;;;;;;;;5053341;28;20095;-75
2022/03/30 14:08:42;;;;;;;23.65;21.15;;;;;;;;;;5053554;28;20103;-75
2022/03/30 14:11:09;;;;;;;23.25;20.77;;;;;;;;;;5053553;28;20083;-75
2022/03/30 14:13:36;;;;;;;24.27;21.77;;;;;;;;;;5053525;28;20146;-75
2022/03/30 14:16:02;;;;;;;23.90;21.40;;;;;;;;;;5052956;28;20508;-75
2022/03/30 14:18:29;;;;;;;21.63;19.45;;;;;;;;;;5052948;28;20106;-75
2022/03/30 14:20:59;;;;;;;21.80;19.60;;;;;;;;;;5052929;28;20504;-75
2022/03/30 14:23:25;;;;;;;22.23;20.00;;;;;;;;;;5053269;28;20099;-75
2022/03/30 14:25:53;;;;;;;22.35;20.05;;;;;;;;;;5053101;28;20085;-76
2022/03/30 14:28:20;;;;;;;;;;;;;;;;;;5053389;28;20044;-75
2022/03/30 14:30:46;;;;;;;23.00;20.67;;;;;;;;;;5053000;28;19931;-75
2022/03/30 14:33:13;;;;;;;22.83;20.33;;;;;;;;;;5052829;28;20056;-75